createdAt,value
2022-11-13T00:01:45.919Z,3.90
2022-11-13T00:04:17.834Z,3.90
2022-11-13T00:06:52.517Z,3.80
2022-11-13T00:09:26.563Z,3.90
2022-11-13T00:11:58.279Z,3.90
2022-11-13T00:14:29.984Z,3.90
2022-11-13T00:17:01.674Z,4.00
2022-11-13T00:19:33.462Z,4.00
2022-11-13T00:22:05.155Z,4.00
2022-11-13T00:24:36.887Z,4.10
2022-11-13T00:27:08.658Z,4.10
2022-11-13T00:29:41.094Z,4.10
2022-11-13T00:32:13.321Z,4.10
2022-11-13T00:34:48.639Z,4.10
2022-11-13T00:37:20.522Z,4.20
2022-11-13T00:39:55.694Z,4.10
2022-11-13T00:42:31.314Z,3.90
2022-11-13T00:45:03.134Z,3.90
2022-11-13T00:47:35.595Z,3.90
2022-11-13T00:50:08.413Z,3.80
2022-11-13T00:52:40.204Z,3.90
2022-11-13T00:55:11.919Z,3.90
2022-11-13T00:57:43.821Z,3.90
2022-11-13T01:00:16.070Z,3.90
2022-11-13T01:02:47.746Z,3.90
2022-11-13T01:05:20.043Z,3.90
2022-11-13T01:07:51.742Z,3.90
2022-11-13T01:10:23.894Z,3.90
2022-11-13T01:12:55.688Z,3.90
2022-11-13T01:15:27.555Z,3.90
2022-11-13T01:17:59.794Z,3.90
2022-11-13T01:20:32.977Z,3.80
2022-11-13T01:23:05.790Z,3.70
2022-11-13T01:25:37.551Z,3.70
2022-11-13T01:28:10.422Z,3.60
2022-11-13T01:30:42.192Z,3.50
2022-11-13T01:33:14.768Z,3.50
2022-11-13T01:35:46.482Z,3.50
2022-11-13T01:38:18.313Z,3.50
2022-11-13T01:40:50.137Z,3.50
2022-11-13T01:43:34.359Z,3.50
2022-11-13T01:46:23.803Z,3.50
2022-11-13T01:49:08.034Z,3.50
2022-11-13T01:51:45.292Z,3.40
2022-11-13T01:54:22.153Z,3.40
2022-11-13T01:56:55.031Z,3.40
2022-11-13T01:59:30.965Z,3.40
2022-11-13T02:02:02.703Z,3.40
2022-11-13T02:04:34.812Z,3.30
2022-11-13T02:07:10.155Z,3.30
2022-11-13T02:09:45.264Z,3.30
2022-11-13T02:12:37.371Z,3.30
2022-11-13T02:15:09.840Z,3.30
2022-11-13T02:17:52.533Z,3.30
2022-11-13T02:21:01.437Z,3.30
2022-11-13T02:24:09.966Z,3.20
2022-11-13T02:26:42.539Z,3.20
2022-11-13T02:29:14.677Z,3.20
2022-11-13T02:31:46.556Z,3.20
2022-11-13T02:34:18.601Z,3.20
2022-11-13T02:36:50.554Z,3.20
2022-11-13T02:39:22.466Z,3.20
2022-11-13T02:41:54.360Z,3.20
2022-11-13T02:44:26.075Z,3.30
2022-11-13T02:46:58.015Z,3.30
2022-11-13T02:49:29.765Z,3.20
2022-11-13T02:52:01.603Z,3.20
2022-11-13T02:54:33.337Z,3.20
2022-11-13T02:57:05.109Z,3.10
2022-11-13T02:59:36.963Z,3.10
2022-11-13T03:02:08.756Z,3.10
2022-11-13T03:05:10.429Z,3.00
2022-11-13T03:07:33.089Z,3.10
2022-11-13T03:10:05.309Z,3.00
2022-11-13T03:12:37.416Z,3.00
2022-11-13T03:15:09.602Z,2.90
2022-11-13T03:17:41.362Z,2.90
2022-11-13T03:20:13.037Z,2.80
2022-11-13T03:22:45.521Z,2.80
2022-11-13T03:25:17.412Z,2.80
2022-11-13T03:27:49.193Z,2.80
2022-11-13T03:30:21.099Z,2.70
2022-11-13T03:32:56.280Z,2.70
2022-11-13T03:35:31.787Z,2.70
2022-11-13T03:38:05.349Z,2.70
2022-11-13T03:40:37.038Z,2.70
2022-11-13T03:43:10.122Z,2.70
2022-11-13T03:45:43.910Z,2.60
2022-11-13T03:48:16.516Z,2.60
2022-11-13T03:50:50.754Z,2.60
2022-11-13T03:53:22.453Z,2.60
2022-11-13T03:55:54.367Z,2.50
2022-11-13T03:58:26.826Z,2.60
2022-11-13T04:00:58.782Z,2.60
2022-11-13T04:03:30.753Z,2.50
2022-11-13T04:06:02.512Z,2.50
2022-11-13T04:08:34.248Z,2.50
2022-11-13T04:11:11.299Z,2.40
2022-11-13T04:13:42.985Z,2.40
2022-11-13T04:16:14.746Z,2.30
2022-11-13T04:18:46.544Z,2.30
2022-11-13T04:21:18.378Z,2.20
2022-11-13T04:23:50.126Z,2.20
2022-11-13T04:26:21.954Z,2.20
2022-11-13T04:28:53.665Z,2.10
2022-11-13T04:31:25.360Z,2.10
2022-11-13T04:33:57.913Z,2.00
2022-11-13T04:36:29.802Z,2.10
2022-11-13T04:39:01.721Z,2.00
2022-11-13T04:41:55.296Z,2.00
2022-11-13T04:44:27.530Z,2.00
2022-11-13T04:46:59.301Z,2.00
2022-11-13T04:49:32.031Z,1.90
2022-11-13T04:52:05.343Z,1.90
2022-11-13T04:54:37.326Z,1.90
2022-11-13T04:57:09.017Z,1.90
2022-11-13T04:59:40.710Z,1.80
2022-11-13T05:02:12.464Z,1.80
2022-11-13T05:04:44.288Z,1.80
2022-11-13T05:07:16.542Z,1.80
2022-11-13T05:09:48.430Z,1.80
2022-11-13T05:12:20.666Z,1.80
2022-11-13T05:14:52.374Z,1.80
2022-11-13T05:17:24.192Z,1.80
2022-11-13T05:19:56.025Z,1.80
2022-11-13T05:22:28.012Z,1.80
2022-11-13T05:24:59.812Z,1.80
2022-11-13T05:27:31.589Z,1.80
2022-11-13T05:30:04.761Z,1.80
2022-11-13T05:32:36.579Z,1.80
2022-11-13T05:35:08.745Z,1.80
2022-11-13T05:37:40.507Z,1.80
2022-11-13T05:40:12.761Z,1.80
2022-11-13T05:42:44.732Z,1.80
2022-11-13T05:45:16.610Z,1.80
2022-11-13T05:47:50.361Z,1.80
2022-11-13T05:50:22.480Z,1.80
2022-11-13T05:52:54.303Z,1.80
2022-11-13T05:55:27.041Z,1.80
2022-11-13T05:57:59.047Z,1.80
2022-11-13T06:00:30.724Z,1.80
2022-11-13T06:03:02.417Z,1.80
2022-11-13T06:05:37.289Z,1.70
2022-11-13T06:08:08.994Z,1.70
2022-11-13T06:10:40.829Z,1.70
2022-11-13T06:13:12.670Z,1.60
2022-11-13T06:15:44.494Z,1.70
2022-11-13T06:18:25.344Z,1.70
2022-11-13T06:21:06.485Z,1.70
2022-11-13T06:23:39.515Z,1.60
2022-11-13T06:26:13.562Z,1.60
2022-11-13T06:28:45.594Z,1.60
2022-11-13T06:31:26.816Z,1.60
2022-11-13T06:33:59.528Z,1.60
2022-11-13T06:36:36.200Z,1.60
2022-11-13T06:39:09.347Z,1.60
2022-11-13T06:41:41.096Z,1.50
2022-11-13T06:44:12.802Z,1.60
2022-11-13T06:46:44.554Z,1.60
2022-11-13T06:49:16.317Z,1.60
2022-11-13T06:51:48.055Z,1.70
2022-11-13T06:54:19.749Z,1.70
2022-11-13T06:56:51.493Z,1.60
2022-11-13T06:59:23.241Z,1.70
2022-11-13T07:01:54.892Z,1.70
2022-11-13T07:04:26.589Z,1.70
2022-11-13T07:06:58.423Z,1.70
2022-11-13T07:09:31.455Z,1.70
2022-11-13T07:12:03.209Z,1.70
2022-11-13T07:14:34.939Z,1.70
2022-11-13T07:17:10.636Z,1.80
2022-11-13T07:19:42.520Z,1.80
2022-11-13T07:22:14.339Z,1.80
2022-11-13T07:24:46.336Z,1.80
2022-11-13T07:27:18.166Z,1.90
2022-11-13T07:29:49.936Z,1.90
2022-11-13T07:32:21.637Z,2.00
2022-11-13T07:34:53.320Z,2.00
2022-11-13T07:37:25.137Z,2.10
2022-11-13T07:39:56.847Z,2.10
2022-11-13T07:42:28.861Z,2.10
2022-11-13T07:45:00.757Z,2.20
2022-11-13T07:47:32.458Z,2.30
2022-11-13T07:50:09.715Z,2.30
2022-11-13T07:52:42.670Z,2.40
2022-11-13T07:55:14.590Z,2.40
2022-11-13T07:57:46.304Z,2.50
2022-11-13T08:00:18.563Z,2.60
2022-11-13T08:02:50.462Z,2.60
2022-11-13T08:05:22.758Z,2.70
2022-11-13T08:07:54.486Z,2.80
2022-11-13T08:10:26.401Z,2.90
2022-11-13T08:13:04.190Z,3.10
2022-11-13T08:15:36.195Z,3.20
2022-11-13T08:18:08.148Z,3.30
2022-11-13T08:20:40.017Z,3.40
2022-11-13T08:23:11.843Z,3.40
2022-11-13T08:25:43.868Z,3.40
2022-11-13T08:28:16.377Z,3.40
2022-11-13T08:30:49.572Z,3.40
2022-11-13T08:33:21.325Z,3.50
2022-11-13T08:35:58.283Z,3.50
2022-11-13T08:38:30.335Z,3.60
2022-11-13T08:41:08.641Z,3.70
2022-11-13T08:43:41.305Z,3.90
2022-11-13T08:46:13.200Z,4.20
2022-11-13T08:48:46.042Z,4.50
2022-11-13T08:51:18.687Z,4.70
2022-11-13T08:53:50.421Z,4.80
2022-11-13T08:56:22.312Z,4.90
2022-11-13T08:58:54.043Z,4.90
2022-11-13T09:01:25.858Z,4.90
2022-11-13T09:03:59.156Z,5.00
2022-11-13T09:06:30.977Z,5.10
2022-11-13T09:09:04.124Z,5.50
2022-11-13T09:11:35.931Z,5.90
2022-11-13T09:14:07.640Z,7.20
2022-11-13T09:16:39.816Z,8.90
2022-11-13T09:19:11.596Z,10.40
2022-11-13T09:21:43.526Z,11.50
2022-11-13T09:24:15.238Z,12.60
2022-11-13T09:26:47.007Z,13.50
2022-11-13T09:29:18.778Z,14.30
2022-11-13T09:31:50.607Z,14.70
2022-11-13T09:34:23.842Z,14.80
2022-11-13T09:36:55.538Z,15.50
2022-11-13T09:39:27.329Z,15.40
2022-11-13T09:42:15.479Z,15.30
2022-11-13T09:44:51.785Z,16.00
2022-11-13T09:47:42.335Z,15.90
2022-11-13T09:50:14.560Z,15.70
2022-11-13T09:52:46.718Z,16.20
2022-11-13T09:55:25.952Z,17.30
2022-11-13T09:58:11.293Z,17.30
2022-11-13T10:00:43.742Z,17.70
2022-11-13T10:04:00.631Z,17.10
2022-11-13T10:06:42.990Z,16.20
2022-11-13T10:09:24.772Z,16.10
2022-11-13T10:12:04.573Z,16.00
2022-11-13T10:14:45.947Z,15.90
2022-11-13T10:17:49.026Z,15.80
2022-11-13T10:20:40.186Z,16.70
2022-11-13T10:23:17.058Z,16.50
2022-11-13T10:25:52.604Z,17.30
2022-11-13T10:31:18.936Z,17.00
2022-11-13T10:33:54.838Z,16.70
2022-11-13T10:36:41.761Z,17.50
2022-11-13T10:39:13.911Z,17.40
2022-11-13T10:41:51.936Z,17.40
2022-11-13T10:44:48.651Z,17.70
2022-11-13T10:47:48.895Z,17.70
2022-11-13T10:50:23.140Z,18.00
2022-11-13T10:52:56.414Z,17.50
2022-11-13T10:55:34.053Z,16.70
2022-11-13T10:58:32.353Z,17.20
2022-11-13T11:01:15.811Z,17.60
2022-11-13T11:03:51.492Z,17.50
2022-11-13T11:07:04.546Z,16.80
2022-11-13T11:09:31.729Z,16.90
2022-11-13T11:12:22.033Z,17.00
2022-11-13T11:14:59.351Z,16.70
2022-11-13T11:17:58.909Z,16.40
2022-11-13T11:20:46.953Z,15.40
2022-11-13T11:23:24.966Z,14.20
2022-11-13T11:25:56.718Z,13.10
2022-11-13T11:28:46.464Z,12.40
2022-11-13T11:32:08.011Z,11.70
2022-11-13T11:34:59.488Z,11.30
2022-11-13T11:37:47.011Z,11.00
2022-11-13T11:40:18.922Z,11.00
2022-11-13T11:43:18.429Z,10.90
2022-11-13T11:45:50.363Z,10.70
2022-11-13T11:48:26.052Z,10.50
2022-11-13T11:51:24.208Z,10.30
2022-11-13T11:54:14.979Z,10.20
2022-11-13T11:56:53.746Z,10.20
2022-11-13T11:59:58.091Z,10.20
2022-11-13T12:02:56.059Z,10.10
2022-11-13T12:05:46.235Z,10.20
2022-11-13T12:08:50.338Z,10.30
2022-11-13T12:11:24.887Z,10.30
2022-11-13T12:14:35.606Z,10.40
2022-11-13T12:17:27.942Z,10.30
2022-11-13T12:20:08.330Z,10.30
2022-11-13T12:23:25.319Z,10.10
2022-11-13T12:26:23.006Z,10.00
2022-11-13T12:29:05.086Z,10.00
2022-11-13T12:32:01.229Z,10.00
2022-11-13T12:34:51.651Z,10.10
2022-11-13T12:37:45.113Z,10.10
2022-11-13T12:40:28.446Z,10.10
2022-11-13T12:43:23.217Z,10.10
2022-11-13T12:46:00.415Z,10.00
2022-11-13T12:48:38.717Z,10.00
2022-11-13T12:51:12.712Z,10.00
2022-11-13T12:53:44.942Z,10.00
2022-11-13T12:56:18.282Z,10.00
2022-11-13T12:59:31.578Z,10.00
2022-11-13T13:02:09.580Z,10.00
2022-11-13T13:04:59.220Z,10.00
2022-11-13T13:07:30.856Z,10.00
2022-11-13T13:10:27.235Z,10.00
2022-11-13T13:13:24.004Z,10.00
2022-11-13T13:16:06.864Z,10.00
2022-11-13T13:18:40.476Z,10.00
2022-11-13T13:21:16.459Z,9.90
2022-11-13T13:23:51.048Z,9.90
2022-11-13T13:26:28.623Z,9.90
2022-11-13T13:29:18.931Z,10.00
2022-11-13T13:32:20.832Z,10.00
2022-11-13T13:35:08.820Z,10.10
2022-11-13T13:38:13.532Z,10.10
2022-11-13T13:41:10.385Z,10.10
2022-11-13T13:44:11.373Z,10.10
2022-11-13T13:46:43.082Z,10.10
2022-11-13T13:49:20.370Z,10.20
2022-11-13T13:51:54.063Z,10.30
2022-11-13T13:54:29.162Z,10.30
2022-11-13T13:57:01.974Z,10.20
2022-11-13T13:59:36.973Z,10.20
2022-11-13T14:02:23.043Z,10.20
2022-11-13T14:04:55.246Z,10.20
2022-11-13T14:07:29.454Z,10.10
2022-11-13T14:10:15.000Z,10.00
2022-11-13T14:12:47.730Z,9.90
2022-11-13T14:15:32.307Z,9.90
2022-11-13T14:20:47.339Z,10.00
2022-11-13T14:23:25.187Z,10.00
2022-11-13T14:25:58.063Z,10.00
2022-11-13T14:28:32.912Z,10.00
2022-11-13T14:31:07.934Z,9.90
2022-11-13T14:33:49.174Z,9.80
2022-11-13T14:36:31.654Z,9.70
2022-11-13T14:39:04.237Z,9.60
2022-11-13T14:41:46.321Z,9.70
2022-11-13T14:44:32.270Z,9.50
2022-11-13T14:47:07.080Z,9.40
2022-11-13T14:49:39.053Z,9.30
2022-11-13T14:52:24.644Z,9.00
2022-11-13T14:55:15.119Z,8.90
2022-11-13T14:57:50.802Z,8.70
2022-11-13T15:00:35.090Z,8.60
2022-11-13T15:03:06.960Z,8.50
2022-11-13T15:05:38.825Z,8.40
2022-11-13T15:08:14.270Z,8.30
2022-11-13T15:10:47.307Z,8.20
2022-11-13T15:13:19.053Z,8.10
2022-11-13T15:15:50.883Z,7.90
2022-11-13T15:18:22.902Z,7.90
2022-11-13T15:20:54.694Z,7.80
2022-11-13T15:23:26.682Z,7.70
2022-11-13T15:25:58.619Z,7.60
2022-11-13T15:28:30.531Z,7.60
2022-11-13T15:31:02.473Z,7.50
2022-11-13T15:33:34.193Z,7.40
2022-11-13T15:36:08.086Z,7.30
2022-11-13T15:38:40.282Z,7.30
2022-11-13T15:41:14.820Z,7.20
2022-11-13T15:43:49.889Z,7.10
2022-11-13T15:46:23.681Z,7.00
2022-11-13T15:48:56.075Z,7.00
2022-11-13T15:51:50.185Z,6.90
2022-11-13T15:54:34.447Z,6.90
2022-11-13T15:57:08.085Z,6.90
2022-11-13T15:59:40.131Z,6.80
2022-11-13T16:02:11.964Z,6.70
2022-11-13T16:04:56.152Z,6.70
2022-11-13T16:07:31.978Z,6.60
2022-11-13T16:10:04.063Z,6.60
2022-11-13T16:12:36.754Z,6.50
2022-11-13T16:15:09.743Z,6.40
2022-11-13T16:17:45.336Z,6.40
2022-11-13T16:20:17.906Z,6.30
2022-11-13T16:22:50.322Z,6.30
2022-11-13T16:25:22.689Z,6.20
2022-11-13T16:27:54.548Z,6.10
2022-11-13T16:30:28.433Z,6.10
2022-11-13T16:33:05.666Z,6.00
2022-11-13T16:35:37.985Z,6.00
2022-11-13T16:38:12.825Z,6.00
2022-11-13T16:40:45.594Z,5.90
2022-11-13T16:43:17.395Z,5.90
2022-11-13T16:45:50.810Z,5.80
2022-11-13T16:48:23.761Z,5.80
2022-11-13T16:50:55.453Z,5.80
2022-11-13T16:53:28.120Z,5.70
2022-11-13T16:56:01.357Z,5.70
2022-11-13T16:58:33.125Z,5.70
2022-11-13T17:01:05.490Z,5.60
2022-11-13T17:03:37.228Z,5.60
2022-11-13T17:06:36.120Z,5.60
2022-11-13T17:09:07.943Z,5.50
2022-11-13T17:11:39.965Z,5.50
2022-11-13T17:14:14.565Z,5.50
2022-11-13T17:16:46.372Z,5.40
2022-11-13T17:19:18.090Z,5.40
2022-11-13T17:21:51.938Z,5.30
2022-11-13T17:24:23.765Z,5.30
2022-11-13T17:26:55.479Z,5.30
2022-11-13T17:29:27.781Z,5.20
2022-11-13T17:31:59.615Z,5.10
2022-11-13T17:34:32.268Z,5.10
2022-11-13T17:37:03.941Z,5.00
2022-11-13T17:39:35.723Z,5.00
2022-11-13T17:42:07.409Z,4.90
2022-11-13T17:44:39.091Z,4.90
2022-11-13T17:47:10.840Z,4.90
2022-11-13T17:49:42.776Z,4.90
2022-11-13T17:52:14.551Z,4.90
2022-11-13T17:54:46.320Z,4.90
2022-11-13T17:57:21.504Z,4.80
2022-11-13T17:59:55.852Z,4.80
2022-11-13T18:02:27.659Z,4.70
2022-11-13T18:05:01.350Z,4.60
2022-11-13T18:07:33.289Z,4.60
2022-11-13T18:10:05.456Z,4.60
2022-11-13T18:12:37.306Z,4.60
2022-11-13T18:15:09.198Z,4.60
2022-11-13T18:17:40.956Z,4.60
2022-11-13T18:20:12.794Z,4.60
2022-11-13T18:22:45.806Z,4.50
2022-11-13T18:25:18.186Z,4.50
2022-11-13T18:27:50.341Z,4.40
2022-11-13T18:30:22.639Z,4.40
2022-11-13T18:32:54.599Z,4.40
2022-11-13T18:35:26.411Z,4.40
2022-11-13T18:37:58.132Z,4.40
2022-11-13T18:40:29.921Z,4.40
2022-11-13T18:43:02.383Z,4.40
2022-11-13T18:45:34.068Z,4.40
2022-11-13T18:48:05.842Z,4.40
2022-11-13T18:50:37.519Z,4.40
2022-11-13T18:53:09.475Z,4.30
2022-11-13T18:55:41.248Z,4.20
2022-11-13T18:58:12.925Z,4.20
2022-11-13T19:00:47.270Z,4.20
2022-11-13T19:03:19.331Z,4.20
2022-11-13T19:05:51.135Z,4.20
2022-11-13T19:08:22.931Z,4.20
2022-11-13T19:10:54.673Z,4.20
2022-11-13T19:13:27.346Z,4.20
2022-11-13T19:16:06.867Z,4.20
2022-11-13T19:18:40.595Z,4.20
2022-11-13T19:21:14.470Z,4.10
2022-11-13T19:23:46.702Z,4.10
2022-11-13T19:26:18.404Z,4.10
2022-11-13T19:28:53.213Z,4.00
2022-11-13T19:31:27.214Z,4.00
2022-11-13T19:34:04.596Z,4.00
2022-11-13T19:36:36.732Z,4.00
2022-11-13T19:39:09.743Z,3.90
2022-11-13T19:41:42.078Z,4.00
2022-11-13T19:44:13.977Z,3.90
2022-11-13T19:46:45.795Z,3.90
2022-11-13T19:49:17.804Z,3.90
2022-11-13T19:51:49.968Z,3.90
2022-11-13T19:54:21.903Z,3.90
2022-11-13T19:56:53.636Z,3.90
2022-11-13T19:59:25.374Z,3.90
2022-11-13T20:01:57.067Z,3.90
2022-11-13T20:04:28.775Z,3.90
2022-11-13T20:07:00.618Z,3.90
2022-11-13T20:09:32.336Z,3.90
2022-11-13T20:12:04.371Z,3.80
2022-11-13T20:14:38.545Z,3.80
2022-11-13T20:17:10.509Z,3.80
2022-11-13T20:19:42.549Z,3.80
2022-11-13T20:22:14.497Z,3.80
2022-11-13T20:24:46.146Z,3.80
2022-11-13T20:27:17.927Z,3.80
2022-11-13T20:29:49.762Z,3.80
2022-11-13T20:32:21.687Z,3.70
2022-11-13T20:34:53.991Z,3.70
2022-11-13T20:37:25.645Z,3.80
2022-11-13T20:39:57.475Z,3.80
2022-11-13T20:42:29.386Z,3.90
2022-11-13T20:45:01.599Z,4.10
2022-11-13T20:47:34.581Z,4.30
2022-11-13T20:50:07.518Z,4.30
2022-11-13T20:52:39.241Z,4.50
2022-11-13T20:55:10.925Z,4.70
2022-11-13T20:57:42.582Z,4.70
2022-11-13T21:00:14.727Z,4.80
2022-11-13T21:02:46.563Z,4.80
2022-11-13T21:05:18.275Z,4.80
2022-11-13T21:07:50.014Z,4.90
2022-11-13T21:10:21.768Z,4.90
2022-11-13T21:12:53.476Z,4.90
2022-11-13T21:15:25.168Z,4.90
2022-11-13T21:17:58.502Z,4.90
2022-11-13T21:20:30.251Z,4.90
2022-11-13T21:23:03.001Z,4.90
2022-11-13T21:25:34.728Z,4.80
2022-11-13T21:28:07.165Z,4.70
2022-11-13T21:30:39.282Z,4.70
2022-11-13T21:33:10.971Z,4.70
2022-11-13T21:35:42.624Z,4.70
2022-11-13T21:38:14.653Z,4.70
2022-11-13T21:41:06.318Z,4.60
2022-11-13T21:43:38.075Z,4.50
2022-11-13T21:46:09.830Z,4.50
2022-11-13T21:48:42.285Z,4.40
2022-11-13T21:51:14.284Z,4.30
2022-11-13T21:53:46.311Z,4.30
2022-11-13T21:56:18.359Z,4.20
2022-11-13T21:58:50.352Z,4.10
2022-11-13T22:01:23.809Z,4.00
2022-11-13T22:03:55.760Z,3.90
2022-11-13T22:06:32.530Z,3.90
2022-11-13T22:09:12.598Z,3.80
2022-11-13T22:11:44.644Z,3.80
2022-11-13T22:14:16.493Z,3.80
2022-11-13T22:16:48.553Z,3.70
2022-11-13T22:19:25.599Z,3.80
2022-11-13T22:21:59.461Z,3.70
2022-11-13T22:24:31.229Z,3.70
2022-11-13T22:27:02.987Z,3.80
2022-11-13T22:29:34.775Z,3.80
2022-11-13T22:32:07.928Z,3.90
2022-11-13T22:34:39.647Z,3.90
2022-11-13T22:37:11.319Z,3.90
2022-11-13T22:39:42.977Z,3.90
2022-11-13T22:42:16.285Z,3.90
2022-11-13T22:44:56.012Z,3.90
2022-11-13T22:47:28.205Z,3.90
2022-11-13T22:50:00.738Z,3.90
2022-11-13T22:52:32.418Z,3.90
2022-11-13T22:55:04.457Z,3.80
2022-11-13T22:57:36.196Z,3.70
2022-11-13T23:00:09.416Z,3.70
2022-11-13T23:02:46.964Z,3.60
2022-11-13T23:05:19.130Z,3.60
2022-11-13T23:07:50.901Z,3.60
2022-11-13T23:10:25.365Z,3.50
2022-11-13T23:12:57.119Z,3.50
2022-11-13T23:15:29.419Z,3.50
2022-11-13T23:18:03.608Z,3.50
2022-11-13T23:20:42.955Z,3.50
2022-11-13T23:23:16.918Z,3.60
2022-11-13T23:25:48.589Z,3.70
2022-11-13T23:28:20.671Z,3.70
2022-11-13T23:30:52.940Z,3.70
2022-11-13T23:33:24.993Z,3.60
2022-11-13T23:35:58.007Z,3.50
2022-11-13T23:38:30.447Z,3.40
2022-11-13T23:41:02.724Z,3.20
2022-11-13T23:44:02.240Z,3.20
2022-11-13T23:46:26.337Z,3.10
2022-11-13T23:48:58.057Z,3.10
2022-11-13T23:51:29.986Z,3.10
2022-11-13T23:54:01.877Z,3.00
2022-11-13T23:56:35.407Z,3.00
2022-11-13T23:59:07.332Z,2.90
